sensor_id;sensor_type;location;lat;lon;timestamp;pressure;altitude;pressure_sealevel;temperature;humidity
10881;BME280;5493;48.884;8.338;2023-02-28T00:00:06;101022.00;;;0.40;100.00
10881;BME280;5493;48.884;8.338;2023-02-28T00:02:35;101027.31;;;0.40;100.00
10881;BME280;5493;48.884;8.338;2023-02-28T00:05:02;101031.25;;;0.46;100.00
10881;BME280;5493;48.884;8.338;2023-02-28T00:07:29;101022.16;;;0.39;100.00
10881;BME280;5493;48.884;8.338;2023-02-28T00:09:58;101028.44;;;0.47;100.00
10881;BME280;5493;48.884;8.338;2023-02-28T00:12:25;101028.03;;;0.52;100.00
10881;BME280;5493;48.884;8.338;2023-02-28T00:14:52;101025.66;;;0.39;100.00
10881;BME280;5493;48.884;8.338;2023-02-28T00:17:18;101032.91;;;0.47;100.00
10881;BME280;5493;48.884;8.338;2023-02-28T00:19:47;101022.09;;;0.29;100.00
10881;BME280;5493;48.884;8.338;2023-02-28T00:22:15;101024.41;;;0.53;100.00
10881;BME280;5493;48.884;8.338;2023-02-28T00:24:42;101026.91;;;0.45;100.00
10881;BME280;5493;48.884;8.338;2023-02-28T00:27:10;101025.22;;;0.44;100.00
10881;BME280;5493;48.884;8.338;2023-02-28T00:29:37;101022.72;;;0.52;100.00
10881;BME280;5493;48.884;8.338;2023-02-28T00:32:04;101026.09;;;0.54;100.00
10881;BME280;5493;48.884;8.338;2023-02-28T00:34:31;101029.56;;;0.55;100.00
10881;BME280;5493;48.884;8.338;2023-02-28T00:37:03;101030.50;;;0.34;100.00
10881;BME280;5493;48.884;8.338;2023-02-28T00:39:30;101026.34;;;0.41;100.00
10881;BME280;5493;48.884;8.338;2023-02-28T00:41:56;101028.88;;;0.62;100.00
10881;BME280;5493;48.884;8.338;2023-02-28T00:44:24;101025.78;;;0.47;100.00
10881;BME280;5493;48.884;8.338;2023-02-28T00:46:51;101026.31;;;0.32;100.00
10881;BME280;5493;48.884;8.338;2023-02-28T00:49:19;101022.88;;;0.51;100.00
10881;BME280;5493;48.884;8.338;2023-02-28T00:51:46;101029.69;;;0.43;100.00
10881;BME280;5493;48.884;8.338;2023-02-28T00:54:12;101027.91;;;0.54;100.00
10881;BME280;5493;48.884;8.338;2023-02-28T00:56:39;101030.97;;;0.49;100.00
10881;BME280;5493;48.884;8.338;2023-02-28T00:59:06;101027.44;;;0.39;100.00
10881;BME280;5493;48.884;8.338;2023-02-28T01:01:34;101028.69;;;0.35;100.00
10881;BME280;5493;48.884;8.338;2023-02-28T01:04:00;101035.06;;;0.23;100.00
10881;BME280;5493;48.884;8.338;2023-02-28T01:06:28;101029.81;;;0.32;100.00
10881;BME280;5493;48.884;8.338;2023-02-28T01:08:54;101025.88;;;0.36;100.00
10881;BME280;5493;48.884;8.338;2023-02-28T01:11:21;101025.06;;;0.36;100.00
10881;BME280;5493;48.884;8.338;2023-02-28T01:13:48;101018.63;;;0.29;100.00
10881;BME280;5493;48.884;8.338;2023-02-28T01:16:14;101017.44;;;0.12;100.00
10881;BME280;5493;48.884;8.338;2023-02-28T01:18:42;101018.19;;;0.14;100.00
10881;BME280;5493;48.884;8.338;2023-02-28T01:21:11;101023.31;;;0.16;100.00
10881;BME280;5493;48.884;8.338;2023-02-28T01:23:38;101023.59;;;0.13;100.00
10881;BME280;5493;48.884;8.338;2023-02-28T01:26:05;101027.22;;;0.12;100.00
10881;BME280;5493;48.884;8.338;2023-02-28T01:28:32;101030.41;;;0.06;100.00
10881;BME280;5493;48.884;8.338;2023-02-28T01:30:59;101020.56;;;0.17;100.00
10881;BME280;5493;48.884;8.338;2023-02-28T01:33:25;101016.66;;;0.21;100.00
10881;BME280;5493;48.884;8.338;2023-02-28T01:35:59;101022.09;;;0.20;100.00
10881;BME280;5493;48.884;8.338;2023-02-28T01:38:25;101030.81;;;0.01;100.00
10881;BME280;5493;48.884;8.338;2023-02-28T01:40:52;101026.88;;;-0.05;100.00
10881;BME280;5493;48.884;8.338;2023-02-28T01:43:21;101027.31;;;0.00;100.00
10881;BME280;5493;48.884;8.338;2023-02-28T01:45:49;101020.38;;;0.09;100.00
10881;BME280;5493;48.884;8.338;2023-02-28T01:48:15;101028.34;;;0.09;100.00
10881;BME280;5493;48.884;8.338;2023-02-28T01:50:43;101022.28;;;-0.03;100.00
10881;BME280;5493;48.884;8.338;2023-02-28T01:53:15;101025.59;;;-0.10;100.00
10881;BME280;5493;48.884;8.338;2023-02-28T01:55:46;101028.81;;;-0.07;100.00
10881;BME280;5493;48.884;8.338;2023-02-28T01:58:15;101024.06;;;-0.13;100.00
10881;BME280;5493;48.884;8.338;2023-02-28T02:00:42;101030.31;;;-0.14;100.00
10881;BME280;5493;48.884;8.338;2023-02-28T02:03:11;101026.03;;;-0.05;100.00
10881;BME280;5493;48.884;8.338;2023-02-28T02:05:39;101021.44;;;-0.03;100.00
10881;BME280;5493;48.884;8.338;2023-02-28T02:08:10;101018.75;;;-0.13;100.00
10881;BME280;5493;48.884;8.338;2023-02-28T02:10:42;101018.38;;;-0.08;100.00
10881;BME280;5493;48.884;8.338;2023-02-28T02:13:44;101020.28;;;-0.10;100.00
10881;BME280;5493;48.884;8.338;2023-02-28T02:16:29;101015.66;;;-0.18;100.00
10881;BME280;5493;48.884;8.338;2023-02-28T02:19:14;101009.28;;;-0.15;100.00
10881;BME280;5493;48.884;8.338;2023-02-28T02:21:59;101005.28;;;-0.30;100.00
10881;BME280;5493;48.884;8.338;2023-02-28T02:27:54;101015.50;;;-0.26;100.00
10881;BME280;5493;48.884;8.338;2023-02-28T02:30:59;101015.50;;;-0.26;100.00
10881;BME280;5493;48.884;8.338;2023-02-28T02:36:47;101008.41;;;-0.46;100.00
10881;BME280;5493;48.884;8.338;2023-02-28T02:39:20;101014.84;;;-0.39;100.00
10881;BME280;5493;48.884;8.338;2023-02-28T02:41:53;101018.38;;;-0.29;100.00
10881;BME280;5493;48.884;8.338;2023-02-28T02:44:22;101007.22;;;-0.32;100.00
10881;BME280;5493;48.884;8.338;2023-02-28T02:46:52;101014.00;;;-0.19;100.00
10881;BME280;5493;48.884;8.338;2023-02-28T02:49:22;101017.31;;;-0.26;100.00
10881;BME280;5493;48.884;8.338;2023-02-28T02:51:53;101012.03;;;-0.17;100.00
10881;BME280;5493;48.884;8.338;2023-02-28T02:54:23;101010.84;;;-0.33;100.00
10881;BME280;5493;48.884;8.338;2023-02-28T02:56:55;101012.94;;;-0.37;100.00
10881;BME280;5493;48.884;8.338;2023-02-28T02:59:24;101015.44;;;-0.35;100.00
10881;BME280;5493;48.884;8.338;2023-02-28T03:01:54;101011.84;;;-0.25;100.00
10881;BME280;5493;48.884;8.338;2023-02-28T03:04:23;101017.56;;;-0.29;100.00
10881;BME280;5493;48.884;8.338;2023-02-28T03:06:52;101018.28;;;-0.27;100.00
10881;BME280;5493;48.884;8.338;2023-02-28T03:09:20;101016.84;;;-0.31;100.00
10881;BME280;5493;48.884;8.338;2023-02-28T03:11:47;101022.81;;;-0.39;100.00
10881;BME280;5493;48.884;8.338;2023-02-28T03:14:39;101023.38;;;-0.35;100.00
10881;BME280;5493;48.884;8.338;2023-02-28T03:17:38;101027.97;;;-0.37;100.00
10881;BME280;5493;48.884;8.338;2023-02-28T03:20:17;101022.59;;;-0.47;100.00
10881;BME280;5493;48.884;8.338;2023-02-28T03:22:58;101018.09;;;-0.35;100.00
10881;BME280;5493;48.884;8.338;2023-02-28T03:25:33;101015.13;;;-0.42;100.00
10881;BME280;5493;48.884;8.338;2023-02-28T03:28:08;101010.75;;;-0.53;100.00
10881;BME280;5493;48.884;8.338;2023-02-28T03:30:46;101016.19;;;-0.24;100.00
10881;BME280;5493;48.884;8.338;2023-02-28T03:33:19;101009.66;;;-0.20;100.00
10881;BME280;5493;48.884;8.338;2023-02-28T03:35:51;101006.91;;;-0.18;100.00
10881;BME280;5493;48.884;8.338;2023-02-28T03:38:27;101011.00;;;-0.05;100.00
10881;BME280;5493;48.884;8.338;2023-02-28T03:41:00;101004.66;;;-0.13;100.00
10881;BME280;5493;48.884;8.338;2023-02-28T03:43:31;101004.75;;;-0.24;100.00
10881;BME280;5493;48.884;8.338;2023-02-28T03:46:02;101006.47;;;-0.14;100.00
10881;BME280;5493;48.884;8.338;2023-02-28T03:48:35;101000.13;;;-0.02;100.00
10881;BME280;5493;48.884;8.338;2023-02-28T03:51:07;101004.94;;;-0.16;100.00
10881;BME280;5493;48.884;8.338;2023-02-28T03:53:39;101015.41;;;-0.15;100.00
10881;BME280;5493;48.884;8.338;2023-02-28T03:56:18;101000.97;;;0.09;100.00
10881;BME280;5493;48.884;8.338;2023-02-28T03:58:49;101002.75;;;-0.02;100.00
10881;BME280;5493;48.884;8.338;2023-02-28T04:01:22;100995.97;;;0.15;100.00
10881;BME280;5493;48.884;8.338;2023-02-28T04:03:50;100991.97;;;-0.10;100.00
10881;BME280;5493;48.884;8.338;2023-02-28T04:06:19;100999.38;;;-0.04;100.00
10881;BME280;5493;48.884;8.338;2023-02-28T04:08:48;100998.44;;;-0.03;100.00
10881;BME280;5493;48.884;8.338;2023-02-28T04:11:23;101003.16;;;-0.06;100.00
10881;BME280;5493;48.884;8.338;2023-02-28T04:13:52;100989.13;;;0.13;100.00
10881;BME280;5493;48.884;8.338;2023-02-28T04:16:19;100995.41;;;0.12;100.00
10881;BME280;5493;48.884;8.338;2023-02-28T04:18:45;100992.63;;;0.13;100.00
10881;BME280;5493;48.884;8.338;2023-02-28T04:21:12;101005.78;;;0.24;100.00
10881;BME280;5493;48.884;8.338;2023-02-28T04:23:39;100997.44;;;0.29;100.00
10881;BME280;5493;48.884;8.338;2023-02-28T04:26:07;101001.59;;;0.31;100.00
10881;BME280;5493;48.884;8.338;2023-02-28T04:28:33;101004.09;;;0.33;100.00
10881;BME280;5493;48.884;8.338;2023-02-28T04:31:02;100999.38;;;0.36;100.00
10881;BME280;5493;48.884;8.338;2023-02-28T04:33:30;100999.34;;;0.27;100.00
10881;BME280;5493;48.884;8.338;2023-02-28T04:36:03;100999.25;;;0.38;100.00
10881;BME280;5493;48.884;8.338;2023-02-28T04:38:32;101001.50;;;0.42;100.00
10881;BME280;5493;48.884;8.338;2023-02-28T04:41:00;101001.84;;;0.19;100.00
10881;BME280;5493;48.884;8.338;2023-02-28T04:43:28;100995.69;;;0.09;100.00
10881;BME280;5493;48.884;8.338;2023-02-28T04:45:56;101001.84;;;0.19;100.00
10881;BME280;5493;48.884;8.338;2023-02-28T04:48:23;101000.47;;;0.24;100.00
10881;BME280;5493;48.884;8.338;2023-02-28T04:50:50;100998.38;;;0.28;100.00
10881;BME280;5493;48.884;8.338;2023-02-28T04:53:16;100996.59;;;0.38;100.00
10881;BME280;5493;48.884;8.338;2023-02-28T04:55:43;100994.50;;;0.32;100.00
10881;BME280;5493;48.884;8.338;2023-02-28T04:58:11;100998.97;;;0.41;100.00
10881;BME280;5493;48.884;8.338;2023-02-28T05:00:41;101002.84;;;0.27;100.00
10881;BME280;5493;48.884;8.338;2023-02-28T05:03:07;101004.25;;;0.31;100.00
10881;BME280;5493;48.884;8.338;2023-02-28T05:05:35;101008.28;;;0.26;100.00
10881;BME280;5493;48.884;8.338;2023-02-28T05:08:01;101012.59;;;0.17;100.00
10881;BME280;5493;48.884;8.338;2023-02-28T05:10:28;101018.19;;;0.24;100.00
10881;BME280;5493;48.884;8.338;2023-02-28T05:12:54;101015.41;;;0.25;100.00
10881;BME280;5493;48.884;8.338;2023-02-28T05:15:21;101012.44;;;0.09;100.00
10881;BME280;5493;48.884;8.338;2023-02-28T05:17:49;101011.75;;;0.17;100.00
10881;BME280;5493;48.884;8.338;2023-02-28T05:20:16;101017.19;;;0.15;100.00
10881;BME280;5493;48.884;8.338;2023-02-28T05:22:43;101017.06;;;0.17;100.00
10881;BME280;5493;48.884;8.338;2023-02-28T05:25:12;101012.63;;;0.27;100.00
10881;BME280;5493;48.884;8.338;2023-02-28T05:27:40;101018.59;;;0.19;100.00
10881;BME280;5493;48.884;8.338;2023-02-28T05:30:07;101010.78;;;0.18;100.00
10881;BME280;5493;48.884;8.338;2023-02-28T05:32:35;101011.97;;;0.04;100.00
10881;BME280;5493;48.884;8.338;2023-02-28T05:35:04;101021.91;;;0.12;100.00
10881;BME280;5493;48.884;8.338;2023-02-28T05:37:31;101010.88;;;0.07;100.00
10881;BME280;5493;48.884;8.338;2023-02-28T05:39:57;101010.47;;;0.11;100.00
10881;BME280;5493;48.884;8.338;2023-02-28T05:42:24;101010.00;;;-0.04;100.00
10881;BME280;5493;48.884;8.338;2023-02-28T05:44:50;101006.06;;;0.21;100.00
10881;BME280;5493;48.884;8.338;2023-02-28T05:47:17;101006.25;;;-0.01;100.00
10881;BME280;5493;48.884;8.338;2023-02-28T05:49:44;101003.34;;;0.12;100.00
10881;BME280;5493;48.884;8.338;2023-02-28T05:52:12;101009.78;;;0.09;100.00
10881;BME280;5493;48.884;8.338;2023-02-28T05:54:38;101007.00;;;0.11;100.00
10881;BME280;5493;48.884;8.338;2023-02-28T05:57:05;101012.03;;;0.14;100.00
10881;BME280;5493;48.884;8.338;2023-02-28T05:59:32;101012.03;;;0.23;100.00
10881;BME280;5493;48.884;8.338;2023-02-28T06:01:58;101016.78;;;0.20;100.00
10881;BME280;5493;48.884;8.338;2023-02-28T06:04:25;101015.41;;;0.25;100.00
10881;BME280;5493;48.884;8.338;2023-02-28T06:06:51;101018.09;;;0.35;100.00
10881;BME280;5493;48.884;8.338;2023-02-28T06:09:19;101020.66;;;0.16;100.00
10881;BME280;5493;48.884;8.338;2023-02-28T06:11:46;101022.34;;;0.17;100.00
10881;BME280;5493;48.884;8.338;2023-02-28T06:14:18;101019.31;;;0.31;100.00
10881;BME280;5493;48.884;8.338;2023-02-28T06:16:44;101019.72;;;0.26;100.00
10881;BME280;5493;48.884;8.338;2023-02-28T06:19:11;101021.84;;;0.32;100.00
10881;BME280;5493;48.884;8.338;2023-02-28T06:21:38;101031.34;;;0.35;100.00
10881;BME280;5493;48.884;8.338;2023-02-28T06:24:06;101027.06;;;0.53;100.00
10881;BME280;5493;48.884;8.338;2023-02-28T06:26:34;101024.38;;;0.43;100.00
10881;BME280;5493;48.884;8.338;2023-02-28T06:29:00;101028.59;;;0.46;100.00
10881;BME280;5493;48.884;8.338;2023-02-28T06:31:27;101018.13;;;0.73;100.00
10881;BME280;5493;48.884;8.338;2023-02-28T06:33:55;101019.53;;;0.68;100.00
10881;BME280;5493;48.884;8.338;2023-02-28T06:36:22;101035.19;;;0.71;100.00
10881;BME280;5493;48.884;8.338;2023-02-28T06:38:48;101031.84;;;0.69;100.00
10881;BME280;5493;48.884;8.338;2023-02-28T06:41:20;101031.00;;;0.78;100.00
10881;BME280;5493;48.884;8.338;2023-02-28T06:43:48;101037.28;;;0.77;100.00
10881;BME280;5493;48.884;8.338;2023-02-28T06:46:14;101038.25;;;0.66;100.00
10881;BME280;5493;48.884;8.338;2023-02-28T06:48:42;101035.47;;;0.77;100.00
10881;BME280;5493;48.884;8.338;2023-02-28T06:51:11;101038.00;;;0.88;100.00
10881;BME280;5493;48.884;8.338;2023-02-28T06:53:38;101043.59;;;0.85;100.00
10881;BME280;5493;48.884;8.338;2023-02-28T06:56:07;101048.19;;;0.83;100.00
10881;BME280;5493;48.884;8.338;2023-02-28T06:58:33;101050.69;;;0.94;100.00
10881;BME280;5493;48.884;8.338;2023-02-28T07:01:02;101054.91;;;0.97;100.00
10881;BME280;5493;48.884;8.338;2023-02-28T07:03:29;101055.72;;;0.88;100.00
10881;BME280;5493;48.884;8.338;2023-02-28T07:05:56;101055.47;;;1.10;100.00
10881;BME280;5493;48.884;8.338;2023-02-28T07:08:22;101059.38;;;1.06;100.00
10881;BME280;5493;48.884;8.338;2023-02-28T07:10:51;101055.63;;;1.18;100.00
10881;BME280;5493;48.884;8.338;2023-02-28T07:13:18;101052.66;;;1.02;100.00
10881;BME280;5493;48.884;8.338;2023-02-28T07:15:53;101049.88;;;1.13;100.00
10881;BME280;5493;48.884;8.338;2023-02-28T07:18:20;101052.13;;;1.08;100.00
10881;BME280;5493;48.884;8.338;2023-02-28T07:20:47;101057.81;;;1.42;100.00
10881;BME280;5493;48.884;8.338;2023-02-28T07:23:14;101061.06;;;1.26;100.00
10881;BME280;5493;48.884;8.338;2023-02-28T07:25:40;101061.88;;;1.27;100.00
10881;BME280;5493;48.884;8.338;2023-02-28T07:28:07;101063.97;;;1.42;100.00
10881;BME280;5493;48.884;8.338;2023-02-28T07:30:33;101056.56;;;1.36;100.00
10881;BME280;5493;48.884;8.338;2023-02-28T07:33:00;101060.22;;;1.35;100.00
10881;BME280;5493;48.884;8.338;2023-02-28T07:35:28;101059.06;;;1.57;100.00
10881;BME280;5493;48.884;8.338;2023-02-28T07:37:57;101056.53;;;1.56;100.00
10881;BME280;5493;48.884;8.338;2023-02-28T07:40:24;101054.72;;;1.66;100.00
10881;BME280;5493;48.884;8.338;2023-02-28T07:42:50;101059.56;;;1.80;100.00
10881;BME280;5493;48.884;8.338;2023-02-28T07:45:17;101061.00;;;1.65;100.00
10881;BME280;5493;48.884;8.338;2023-02-28T07:47:45;101062.78;;;1.83;100.00
10881;BME280;5493;48.884;8.338;2023-02-28T07:50:13;101061.44;;;1.70;100.00
10881;BME280;5493;48.884;8.338;2023-02-28T07:52:41;101060.72;;;1.68;100.00
10881;BME280;5493;48.884;8.338;2023-02-28T07:55:09;101066.13;;;1.85;100.00
10881;BME280;5493;48.884;8.338;2023-02-28T07:57:35;101065.63;;;1.63;100.00
10881;BME280;5493;48.884;8.338;2023-02-28T08:00:03;101060.41;;;1.80;100.00
10881;BME280;5493;48.884;8.338;2023-02-28T08:02:30;101063.25;;;1.60;100.00
10881;BME280;5493;48.884;8.338;2023-02-28T08:04:57;101055.91;;;1.90;100.00
10881;BME280;5493;48.884;8.338;2023-02-28T08:07:23;101061.81;;;1.84;100.00
10881;BME280;5493;48.884;8.338;2023-02-28T08:09:51;101067.16;;;1.56;100.00
10881;BME280;5493;48.884;8.338;2023-02-28T08:12:18;101066.59;;;1.71;100.00
10881;BME280;5493;48.884;8.338;2023-02-28T08:14:45;101065.72;;;1.80;100.00
10881;BME280;5493;48.884;8.338;2023-02-28T08:17:11;101072.44;;;1.75;100.00
10881;BME280;5493;48.884;8.338;2023-02-28T08:19:38;101072.84;;;1.89;100.00
10881;BME280;5493;48.884;8.338;2023-02-28T08:22:05;101071.91;;;1.71;100.00
10881;BME280;5493;48.884;8.338;2023-02-28T08:24:31;101073.38;;;1.93;100.00
10881;BME280;5493;48.884;8.338;2023-02-28T08:26:59;101074.25;;;1.74;100.00
10881;BME280;5493;48.884;8.338;2023-02-28T08:29:26;101077.97;;;2.01;100.00
10881;BME280;5493;48.884;8.338;2023-02-28T08:31:52;101081.78;;;1.88;100.00
10881;BME280;5493;48.884;8.338;2023-02-28T08:34:19;101079.13;;;1.88;100.00
10881;BME280;5493;48.884;8.338;2023-02-28T08:36:46;101080.81;;;1.89;100.00
10881;BME280;5493;48.884;8.338;2023-02-28T08:39:12;101081.06;;;2.06;100.00
10881;BME280;5493;48.884;8.338;2023-02-28T08:41:39;101089.91;;;1.77;100.00
10881;BME280;5493;48.884;8.338;2023-02-28T08:44:07;101086.38;;;1.96;100.00
10881;BME280;5493;48.884;8.338;2023-02-28T08:46:34;101099.72;;;1.86;100.00
10881;BME280;5493;48.884;8.338;2023-02-28T08:49:00;101085.47;;;2.15;100.00
10881;BME280;5493;48.884;8.338;2023-02-28T08:51:28;101094.09;;;1.89;100.00
10881;BME280;5493;48.884;8.338;2023-02-28T08:53:57;101084.28;;;1.99;100.00
10881;BME280;5493;48.884;8.338;2023-02-28T08:56:24;101084.84;;;1.93;100.00
10881;BME280;5493;48.884;8.338;2023-02-28T08:58:51;101084.63;;;2.14;100.00
10881;BME280;5493;48.884;8.338;2023-02-28T09:01:23;101086.13;;;1.89;100.00
10881;BME280;5493;48.884;8.338;2023-02-28T09:03:51;101081.91;;;2.06;100.00
10881;BME280;5493;48.884;8.338;2023-02-28T09:06:18;101082.81;;;2.15;100.00
10881;BME280;5493;48.884;8.338;2023-02-28T09:08:46;101080.47;;;2.12;100.00
10881;BME280;5493;48.884;8.338;2023-02-28T09:11:12;101081.19;;;2.04;100.00
10881;BME280;5493;48.884;8.338;2023-02-28T09:13:39;101088.06;;;1.97;100.00
10881;BME280;5493;48.884;8.338;2023-02-28T09:16:07;101086.38;;;2.33;100.00
10881;BME280;5493;48.884;8.338;2023-02-28T09:18:37;101087.38;;;2.32;100.00
10881;BME280;5493;48.884;8.338;2023-02-28T09:21:04;101088.94;;;2.25;100.00
10881;BME280;5493;48.884;8.338;2023-02-28T09:23:31;101087.72;;;2.46;100.00
10881;BME280;5493;48.884;8.338;2023-02-28T09:25:57;101081.97;;;2.14;100.00
10881;BME280;5493;48.884;8.338;2023-02-28T09:28:24;101079.91;;;2.45;100.00
10881;BME280;5493;48.884;8.338;2023-02-28T09:30:52;101069.22;;;2.27;100.00
10881;BME280;5493;48.884;8.338;2023-02-28T09:33:20;101068.41;;;2.44;100.00
10881;BME280;5493;48.884;8.338;2023-02-28T09:35:48;101077.38;;;2.43;100.00
10881;BME280;5493;48.884;8.338;2023-02-28T09:38:15;101072.22;;;2.42;100.00
10881;BME280;5493;48.884;8.338;2023-02-28T09:40:47;101061.72;;;2.40;100.00
10881;BME280;5493;48.884;8.338;2023-02-28T09:43:17;101073.50;;;2.38;100.00
10881;BME280;5493;48.884;8.338;2023-02-28T09:45:48;101070.69;;;2.67;100.00
10881;BME280;5493;48.884;8.338;2023-02-28T09:48:20;101069.91;;;2.57;100.00
10881;BME280;5493;48.884;8.338;2023-02-28T09:50:52;101082.72;;;2.88;100.00
10881;BME280;5493;48.884;8.338;2023-02-28T09:53:27;101080.66;;;2.82;100.00
10881;BME280;5493;48.884;8.338;2023-02-28T09:56:01;101083.78;;;2.78;100.00
10881;BME280;5493;48.884;8.338;2023-02-28T09:58:33;101087.34;;;2.86;100.00
10881;BME280;5493;48.884;8.338;2023-02-28T10:01:06;101086.25;;;3.07;100.00
10881;BME280;5493;48.884;8.338;2023-02-28T10:03:39;101086.78;;;2.92;100.00
10881;BME280;5493;48.884;8.338;2023-02-28T10:06:12;101081.91;;;3.23;100.00
10881;BME280;5493;48.884;8.338;2023-02-28T10:08:45;101083.13;;;3.29;100.00
10881;BME280;5493;48.884;8.338;2023-02-28T10:11:16;101089.44;;;3.45;100.00
10881;BME280;5493;48.884;8.338;2023-02-28T10:13:51;101092.97;;;3.72;100.00
10881;BME280;5493;48.884;8.338;2023-02-28T10:16:24;101090.50;;;3.35;100.00
10881;BME280;5493;48.884;8.338;2023-02-28T10:18:55;101093.47;;;3.50;100.00
10881;BME280;5493;48.884;8.338;2023-02-28T10:21:28;101093.16;;;3.35;100.00
10881;BME280;5493;48.884;8.338;2023-02-28T10:24:03;101097.66;;;3.52;100.00
10881;BME280;5493;48.884;8.338;2023-02-28T10:26:33;101106.34;;;3.80;100.00
10881;BME280;5493;48.884;8.338;2023-02-28T10:29:00;101100.91;;;3.64;100.00
10881;BME280;5493;48.884;8.338;2023-02-28T10:31:28;101108.19;;;3.36;100.00
10881;BME280;5493;48.884;8.338;2023-02-28T10:33:56;101101.81;;;3.98;100.00
10881;BME280;5493;48.884;8.338;2023-02-28T10:36:25;101098.59;;;3.86;100.00
10881;BME280;5493;48.884;8.338;2023-02-28T10:38:51;101105.00;;;4.02;100.00
10881;BME280;5493;48.884;8.338;2023-02-28T10:41:27;101108.63;;;3.49;100.00
10881;BME280;5493;48.884;8.338;2023-02-28T10:44:14;101107.56;;;3.85;100.00
10881;BME280;5493;48.884;8.338;2023-02-28T10:46:41;101108.91;;;3.64;100.00
10881;BME280;5493;48.884;8.338;2023-02-28T10:49:14;101112.41;;;3.64;100.00
10881;BME280;5493;48.884;8.338;2023-02-28T10:51:44;101106.28;;;3.89;98.61
10881;BME280;5493;48.884;8.338;2023-02-28T10:54:15;101109.44;;;3.67;100.00
10881;BME280;5493;48.884;8.338;2023-02-28T10:56:43;101113.63;;;3.95;98.21
10881;BME280;5493;48.884;8.338;2023-02-28T10:59:27;101113.91;;;4.10;96.49
10881;BME280;5493;48.884;8.338;2023-02-28T11:01:54;101109.56;;;3.83;96.21
10881;BME280;5493;48.884;8.338;2023-02-28T11:04:33;101115.53;;;4.03;95.39
10881;BME280;5493;48.884;8.338;2023-02-28T11:07:04;101105.28;;;3.90;94.55
10881;BME280;5493;48.884;8.338;2023-02-28T11:09:33;101108.22;;;4.39;92.63
10881;BME280;5493;48.884;8.338;2023-02-28T11:12:01;101100.88;;;4.33;90.20
10881;BME280;5493;48.884;8.338;2023-02-28T11:14:29;101103.22;;;4.36;91.15
10881;BME280;5493;48.884;8.338;2023-02-28T11:16:59;101095.16;;;4.62;87.57
10881;BME280;5493;48.884;8.338;2023-02-28T11:19:29;101105.34;;;4.66;88.59
10881;BME280;5493;48.884;8.338;2023-02-28T11:22:02;101101.91;;;4.40;90.68
10881;BME280;5493;48.884;8.338;2023-02-28T11:24:33;101103.16;;;4.62;89.02
10881;BME280;5493;48.884;8.338;2023-02-28T11:27:01;101098.25;;;4.41;87.25
10881;BME280;5493;48.884;8.338;2023-02-28T11:29:29;101091.31;;;4.64;87.77
10881;BME280;5493;48.884;8.338;2023-02-28T11:32:13;101086.88;;;4.39;87.67
10881;BME280;5493;48.884;8.338;2023-02-28T11:34:43;101083.34;;;4.38;87.77
10881;BME280;5493;48.884;8.338;2023-02-28T11:37:14;101092.59;;;4.94;86.25
10881;BME280;5493;48.884;8.338;2023-02-28T11:39:41;101090.91;;;4.93;86.82
10881;BME280;5493;48.884;8.338;2023-02-28T11:42:26;101077.78;;;4.58;86.90
10881;BME280;5493;48.884;8.338;2023-02-28T11:45:07;101084.66;;;4.68;88.34
10881;BME280;5493;48.884;8.338;2023-02-28T11:47:45;101069.25;;;4.54;85.87
10881;BME280;5493;48.884;8.338;2023-02-28T11:50:21;101077.50;;;4.85;87.38
10881;BME280;5493;48.884;8.338;2023-02-28T11:52:56;101070.41;;;5.26;82.49
10881;BME280;5493;48.884;8.338;2023-02-28T11:55:26;101083.03;;;4.83;82.70
10881;BME280;5493;48.884;8.338;2023-02-28T11:58:16;101079.22;;;4.94;83.73
10881;BME280;5493;48.884;8.338;2023-02-28T12:00:57;101067.41;;;5.21;77.22
10881;BME280;5493;48.884;8.338;2023-02-28T12:03:31;101073.69;;;6.25;72.73
10881;BME280;5493;48.884;8.338;2023-02-28T12:06:09;101064.94;;;6.31;70.21
10881;BME280;5493;48.884;8.338;2023-02-28T12:08:49;101068.34;;;7.17;67.90
10881;BME280;5493;48.884;8.338;2023-02-28T12:11:27;101067.50;;;6.94;65.08
10881;BME280;5493;48.884;8.338;2023-02-28T12:16:49;101064.59;;;7.86;65.87
10881;BME280;5493;48.884;8.338;2023-02-28T12:19:22;101068.94;;;7.87;61.70
10881;BME280;5493;48.884;8.338;2023-02-28T12:24:58;101063.03;;;8.07;58.49
10881;BME280;5493;48.884;8.338;2023-02-28T12:27:30;101052.94;;;8.23;59.62
10881;BME280;5493;48.884;8.338;2023-02-28T12:30:02;101050.91;;;8.90;56.95
10881;BME280;5493;48.884;8.338;2023-02-28T12:32:32;101049.16;;;9.19;55.72
10881;BME280;5493;48.884;8.338;2023-02-28T12:35:02;101030.19;;;9.06;57.23
10881;BME280;5493;48.884;8.338;2023-02-28T12:37:35;101033.31;;;8.52;57.25
10881;BME280;5493;48.884;8.338;2023-02-28T12:40:11;101031.91;;;8.56;57.99
10881;BME280;5493;48.884;8.338;2023-02-28T12:42:41;101028.53;;;8.69;56.89
10881;BME280;5493;48.884;8.338;2023-02-28T12:45:15;101034.53;;;8.35;57.54
10881;BME280;5493;48.884;8.338;2023-02-28T12:47:44;101029.16;;;8.85;56.57
10881;BME280;5493;48.884;8.338;2023-02-28T12:50:12;101024.78;;;8.63;56.99
10881;BME280;5493;48.884;8.338;2023-02-28T12:52:47;101021.28;;;9.05;56.98
10881;BME280;5493;48.884;8.338;2023-02-28T12:55:23;101036.22;;;8.72;56.63
10881;BME280;5493;48.884;8.338;2023-02-28T12:57:57;101018.34;;;9.00;56.39
10881;BME280;5493;48.884;8.338;2023-02-28T13:00:30;101010.22;;;9.15;55.83
10881;BME280;5493;48.884;8.338;2023-02-28T13:03:14;101011.06;;;8.58;57.21
10881;BME280;5493;48.884;8.338;2023-02-28T13:06:14;101011.81;;;8.52;58.42
10881;BME280;5493;48.884;8.338;2023-02-28T13:08:59;101015.13;;;9.54;56.87
10881;BME280;5493;48.884;8.338;2023-02-28T13:11:31;101009.63;;;8.98;56.59
10881;BME280;5493;48.884;8.338;2023-02-28T13:14:00;101009.28;;;9.50;55.69
10881;BME280;5493;48.884;8.338;2023-02-28T13:16:27;101010.91;;;8.45;56.53
10881;BME280;5493;48.884;8.338;2023-02-28T13:19:08;101015.66;;;9.21;55.73
10881;BME280;5493;48.884;8.338;2023-02-28T13:21:42;101007.66;;;9.07;56.11
10881;BME280;5493;48.884;8.338;2023-02-28T13:24:11;101017.94;;;8.82;55.34
10881;BME280;5493;48.884;8.338;2023-02-28T13:29:54;101012.00;;;8.36;58.02